createdAt,value
2022-11-22T00:00:04.754Z,180
2022-11-22T00:00:24.803Z,180
2022-11-22T00:00:44.850Z,180
2022-11-22T00:01:04.871Z,157.5
2022-11-22T00:01:24.932Z,157.5
2022-11-22T00:01:45.064Z,157.5
2022-11-22T00:02:05.172Z,157.5
2022-11-22T00:02:25.113Z,157.5
2022-11-22T00:02:45.130Z,180
2022-11-22T00:03:05.173Z,157.5
2022-11-22T00:03:25.215Z,135
2022-11-22T00:03:45.218Z,135
2022-11-22T00:04:05.274Z,112.5
2022-11-22T00:04:25.341Z,112.5
2022-11-22T00:04:45.363Z,135
2022-11-22T00:05:05.386Z,135
2022-11-22T00:05:25.414Z,157.5
2022-11-22T00:05:45.466Z,135
2022-11-22T00:06:05.479Z,135
2022-11-22T00:06:25.542Z,157.5
2022-11-22T00:06:45.554Z,180
2022-11-22T00:07:05.600Z,180
2022-11-22T00:07:25.670Z,157.5
2022-11-22T00:07:45.678Z,157.5
2022-11-22T00:08:05.663Z,157.5
2022-11-22T00:08:25.689Z,157.5
2022-11-22T00:08:45.715Z,180
2022-11-22T00:09:05.753Z,157.5
2022-11-22T00:09:25.809Z,180
2022-11-22T00:09:45.835Z,180
2022-11-22T00:10:05.868Z,180
2022-11-22T00:10:25.878Z,157.5
2022-11-22T00:10:45.920Z,157.5
2022-11-22T00:11:05.946Z,157.5
2022-11-22T00:11:25.998Z,157.5
2022-11-22T00:11:46.046Z,157.5
2022-11-22T00:12:06.087Z,157.5
2022-11-22T00:12:26.099Z,157.5
2022-11-22T00:12:46.117Z,157.5
2022-11-22T00:13:06.153Z,157.5
2022-11-22T00:13:26.177Z,135
2022-11-22T00:13:46.243Z,135
2022-11-22T00:14:06.275Z,157.5
2022-11-22T00:14:26.317Z,157.5
2022-11-22T00:14:46.360Z,180
2022-11-22T00:15:06.430Z,180
2022-11-22T00:15:26.468Z,157.5
2022-11-22T00:15:46.499Z,157.5
2022-11-22T00:16:06.516Z,157.5
2022-11-22T00:16:26.547Z,157.5
2022-11-22T00:16:46.597Z,135
2022-11-22T00:17:06.618Z,135
2022-11-22T00:17:26.657Z,157.5
2022-11-22T00:17:46.689Z,157.5
2022-11-22T00:18:06.717Z,180
2022-11-22T00:18:26.738Z,180
2022-11-22T00:18:46.803Z,157.5
2022-11-22T00:19:06.836Z,157.5
2022-11-22T00:19:27.199Z,135
2022-11-22T00:19:46.905Z,157.5
2022-11-22T00:20:06.917Z,157.5
2022-11-22T00:20:27.017Z,157.5
2022-11-22T00:20:47.014Z,157.5
2022-11-22T00:21:07.030Z,180
2022-11-22T00:21:27.065Z,180
2022-11-22T00:21:47.091Z,157.5
2022-11-22T00:22:07.156Z,180
2022-11-22T00:22:27.264Z,180
2022-11-22T00:22:47.226Z,180
2022-11-22T00:23:07.272Z,180
2022-11-22T00:23:27.325Z,157.5
2022-11-22T00:23:47.366Z,180
2022-11-22T00:24:07.411Z,157.5
2022-11-22T00:24:27.441Z,157.5
2022-11-22T00:24:47.471Z,135
2022-11-22T00:25:07.498Z,135
2022-11-22T00:25:27.552Z,135
2022-11-22T00:25:47.585Z,157.5
2022-11-22T00:26:07.622Z,180
2022-11-22T00:26:27.724Z,180
2022-11-22T00:26:47.689Z,180
2022-11-22T00:27:07.704Z,157.5
2022-11-22T00:27:27.758Z,157.5
2022-11-22T00:27:47.794Z,135
2022-11-22T00:28:07.840Z,157.5
2022-11-22T00:28:27.863Z,180
2022-11-22T00:28:47.905Z,157.5
2022-11-22T00:29:07.926Z,157.5
2022-11-22T00:29:28.263Z,180
2022-11-22T00:29:47.980Z,180
2022-11-22T00:30:08.081Z,180
2022-11-22T00:30:28.036Z,180
2022-11-22T00:30:48.066Z,157.5
2022-11-22T00:31:08.115Z,180
2022-11-22T00:31:28.173Z,180
2022-11-22T00:31:48.232Z,180
2022-11-22T00:32:08.226Z,180
2022-11-22T00:32:28.256Z,180
2022-11-22T00:32:48.293Z,180
2022-11-22T00:33:08.316Z,180
2022-11-22T00:33:28.351Z,157.5
2022-11-22T00:33:48.376Z,157.5
2022-11-22T00:34:08.416Z,157.5
2022-11-22T00:34:28.459Z,180
2022-11-22T00:34:48.520Z,157.5
2022-11-22T00:35:08.582Z,180
2022-11-22T00:35:28.608Z,180
2022-11-22T00:35:48.665Z,157.5
2022-11-22T00:36:08.715Z,157.5
2022-11-22T00:36:28.729Z,157.5
2022-11-22T00:36:48.756Z,180
2022-11-22T00:37:08.812Z,202.5
2022-11-22T00:37:28.867Z,202.5
2022-11-22T00:37:48.902Z,180
2022-11-22T00:38:08.943Z,180
2022-11-22T00:38:28.959Z,202.5
2022-11-22T00:38:49.005Z,202.5
2022-11-22T00:39:09.031Z,202.5
2022-11-22T00:39:29.501Z,180
2022-11-22T00:39:49.099Z,180
2022-11-22T00:40:09.130Z,157.5
2022-11-22T00:40:29.153Z,135
2022-11-22T00:40:49.214Z,157.5
2022-11-22T00:41:09.220Z,180
2022-11-22T00:41:29.258Z,180
2022-11-22T00:41:49.307Z,157.5
2022-11-22T00:42:09.354Z,180
2022-11-22T00:42:29.423Z,180
2022-11-22T00:42:49.468Z,180
2022-11-22T00:43:09.474Z,180
2022-11-22T00:43:29.525Z,180
2022-11-22T00:43:49.549Z,180
2022-11-22T00:44:09.613Z,180
2022-11-22T00:44:29.638Z,180
2022-11-22T00:44:49.662Z,180
2022-11-22T00:45:09.727Z,157.5
2022-11-22T00:45:29.792Z,157.5
2022-11-22T00:45:49.872Z,135
2022-11-22T00:46:09.960Z,135
2022-11-22T00:46:29.944Z,157.5
2022-11-22T00:46:49.983Z,135
2022-11-22T00:47:10.015Z,157.5
2022-11-22T00:47:30.037Z,135
2022-11-22T00:47:50.091Z,135
2022-11-22T00:48:10.106Z,135
2022-11-22T00:48:30.226Z,135
2022-11-22T00:48:50.197Z,135
2022-11-22T00:49:10.228Z,157.5
2022-11-22T00:49:30.593Z,157.5
2022-11-22T00:49:50.319Z,157.5
2022-11-22T00:50:10.366Z,135
2022-11-22T00:50:30.370Z,135
2022-11-22T00:50:50.404Z,157.5
2022-11-22T00:51:10.447Z,157.5
2022-11-22T00:51:30.476Z,180
2022-11-22T00:51:50.503Z,180
2022-11-22T00:52:10.524Z,180
2022-11-22T00:52:30.570Z,180
2022-11-22T00:52:50.672Z,180
2022-11-22T00:53:10.613Z,180
2022-11-22T00:53:30.667Z,180
2022-11-22T00:53:50.704Z,180
2022-11-22T00:54:10.726Z,180
2022-11-22T00:54:30.748Z,157.5
2022-11-22T00:54:54.830Z,135
2022-11-22T00:55:10.810Z,135
2022-11-22T00:55:30.847Z,135
2022-11-22T00:55:50.882Z,157.5
2022-11-22T00:56:10.915Z,180
2022-11-22T00:56:30.928Z,180
2022-11-22T00:56:50.958Z,180
2022-11-22T00:57:10.983Z,180
2022-11-22T00:57:31.018Z,180
2022-11-22T00:57:51.030Z,180
2022-11-22T00:58:11.109Z,157.5
2022-11-22T00:58:31.109Z,180
2022-11-22T00:58:51.138Z,180
2022-11-22T00:59:11.173Z,180
2022-11-22T00:59:31.472Z,180
2022-11-22T00:59:51.215Z,157.5
2022-11-22T01:00:11.246Z,180
2022-11-22T01:00:31.371Z,180
2022-11-22T01:00:56.310Z,180
2022-11-22T01:01:11.387Z,180
2022-11-22T01:01:31.424Z,180
2022-11-22T01:01:51.413Z,180
2022-11-22T01:02:11.453Z,157.5
2022-11-22T01:02:31.465Z,135
2022-11-22T01:02:51.505Z,135
2022-11-22T01:03:11.593Z,157.5
2022-11-22T01:03:31.584Z,157.5
2022-11-22T01:03:51.599Z,157.5
2022-11-22T01:04:11.626Z,157.5
2022-11-22T01:04:31.662Z,157.5
2022-11-22T01:04:51.696Z,135
2022-11-22T01:05:11.742Z,135
2022-11-22T01:05:31.872Z,135
2022-11-22T01:05:51.843Z,157.5
2022-11-22T01:06:11.883Z,180
2022-11-22T01:06:31.956Z,157.5
2022-11-22T01:06:52.018Z,180
2022-11-22T01:07:12.120Z,180
2022-11-22T01:07:32.157Z,157.5
2022-11-22T01:07:52.225Z,157.5
2022-11-22T01:08:12.169Z,157.5
2022-11-22T01:08:32.202Z,157.5
2022-11-22T01:08:52.316Z,135
2022-11-22T01:09:12.310Z,157.5
2022-11-22T01:09:32.591Z,157.5
2022-11-22T01:09:52.362Z,157.5
2022-11-22T01:10:12.386Z,180
2022-11-22T01:10:32.433Z,157.5
2022-11-22T01:10:52.474Z,157.5
2022-11-22T01:11:12.493Z,157.5
2022-11-22T01:11:32.540Z,180
2022-11-22T01:11:52.670Z,180
2022-11-22T01:12:12.630Z,180
2022-11-22T01:12:32.660Z,157.5
2022-11-22T01:12:52.674Z,135
2022-11-22T01:13:12.710Z,157.5
2022-11-22T01:13:32.751Z,180
2022-11-22T01:13:52.809Z,180
2022-11-22T01:14:12.839Z,180
2022-11-22T01:14:32.907Z,157.5
2022-11-22T01:14:52.953Z,157.5
2022-11-22T01:15:12.973Z,135
2022-11-22T01:15:33.025Z,135
2022-11-22T01:15:53.058Z,157.5
2022-11-22T01:16:13.102Z,157.5
2022-11-22T01:16:33.129Z,180
2022-11-22T01:16:53.174Z,180
2022-11-22T01:17:13.213Z,157.5
2022-11-22T01:17:33.247Z,135
2022-11-22T01:17:53.372Z,135
2022-11-22T01:18:13.341Z,135
2022-11-22T01:18:33.358Z,157.5
2022-11-22T01:18:53.409Z,157.5
2022-11-22T01:19:13.431Z,180
2022-11-22T01:19:33.440Z,157.5
2022-11-22T01:19:53.474Z,180
2022-11-22T01:20:13.501Z,157.5
2022-11-22T01:20:33.594Z,157.5
2022-11-22T01:20:53.707Z,157.5
2022-11-22T01:21:13.624Z,135
2022-11-22T01:21:33.652Z,112.5
2022-11-22T01:21:53.711Z,112.5
2022-11-22T01:22:13.779Z,90
2022-11-22T01:22:33.834Z,135
2022-11-22T01:22:53.874Z,112.5
2022-11-22T01:23:13.929Z,112.5
2022-11-22T01:23:33.986Z,135
2022-11-22T01:23:54.038Z,157.5
2022-11-22T01:24:14.071Z,180
2022-11-22T01:24:34.125Z,180
2022-11-22T01:24:54.230Z,202.5
2022-11-22T01:25:14.217Z,202.5
2022-11-22T01:25:34.263Z,157.5
2022-11-22T01:25:54.284Z,157.5
2022-11-22T01:26:14.322Z,157.5
2022-11-22T01:26:34.344Z,180
2022-11-22T01:26:54.380Z,180
2022-11-22T01:27:14.396Z,180
2022-11-22T01:27:34.437Z,157.5
2022-11-22T01:27:54.497Z,157.5
2022-11-22T01:28:14.525Z,180
2022-11-22T01:28:34.572Z,202.5
2022-11-22T01:28:54.606Z,180
2022-11-22T01:29:14.640Z,135
2022-11-22T01:29:34.667Z,157.5
2022-11-22T01:29:54.695Z,180
2022-11-22T01:30:14.734Z,157.5
2022-11-22T01:30:34.790Z,157.5
2022-11-22T01:30:54.794Z,157.5
2022-11-22T01:31:14.811Z,157.5
2022-11-22T01:31:34.841Z,180
2022-11-22T01:31:54.871Z,202.5
2022-11-22T01:32:14.895Z,180
2022-11-22T01:32:34.918Z,157.5
2022-11-22T01:32:54.983Z,157.5
2022-11-22T01:33:15.002Z,157.5
2022-11-22T01:33:35.036Z,157.5
2022-11-22T01:33:55.065Z,157.5
2022-11-22T01:34:15.118Z,157.5
2022-11-22T01:34:35.162Z,180
2022-11-22T01:34:55.185Z,157.5
2022-11-22T01:35:15.215Z,157.5
2022-11-22T01:35:35.366Z,157.5
2022-11-22T01:35:55.289Z,157.5
2022-11-22T01:36:15.329Z,180
2022-11-22T01:36:35.366Z,180
2022-11-22T01:36:55.394Z,180
2022-11-22T01:37:15.460Z,180
2022-11-22T01:37:35.487Z,157.5
2022-11-22T01:37:55.527Z,180
2022-11-22T01:38:15.585Z,157.5
2022-11-22T01:38:35.601Z,135
2022-11-22T01:38:55.633Z,112.5
2022-11-22T01:39:15.710Z,135
2022-11-22T01:39:35.765Z,180
2022-11-22T01:39:55.815Z,180
2022-11-22T01:40:15.951Z,180
2022-11-22T01:40:35.906Z,180
2022-11-22T01:40:55.957Z,180
2022-11-22T01:41:15.963Z,180
2022-11-22T01:41:36.006Z,157.5
2022-11-22T01:41:56.034Z,157.5
2022-11-22T01:42:16.066Z,180
2022-11-22T01:42:36.098Z,157.5
2022-11-22T01:42:56.128Z,180
2022-11-22T01:43:16.166Z,135
2022-11-22T01:43:36.211Z,112.5
2022-11-22T01:43:56.266Z,135
2022-11-22T01:44:16.287Z,180
2022-11-22T01:44:36.312Z,180
2022-11-22T01:44:56.346Z,180
2022-11-22T01:45:16.380Z,157.5
2022-11-22T01:45:36.453Z,157.5
2022-11-22T01:45:56.466Z,180
2022-11-22T01:46:16.506Z,180
2022-11-22T01:46:36.555Z,157.5
2022-11-22T01:46:56.643Z,180
2022-11-22T01:47:16.626Z,180
2022-11-22T01:47:36.683Z,180
2022-11-22T01:47:56.749Z,180
2022-11-22T01:48:16.894Z,180
2022-11-22T01:48:36.852Z,180
2022-11-22T01:48:56.877Z,180
2022-11-22T01:49:16.908Z,202.5
2022-11-22T01:49:36.934Z,180
2022-11-22T01:49:56.990Z,157.5
2022-11-22T01:50:17.022Z,157.5
2022-11-22T01:50:37.051Z,157.5
2022-11-22T01:50:57.122Z,180
2022-11-22T01:51:17.159Z,180
2022-11-22T01:51:37.210Z,180
2022-11-22T01:51:57.255Z,180
2022-11-22T01:52:17.299Z,180
2022-11-22T01:52:37.334Z,180
2022-11-22T01:52:57.351Z,180
2022-11-22T01:53:17.440Z,180
2022-11-22T01:53:37.455Z,180
2022-11-22T01:53:57.505Z,180
2022-11-22T01:54:17.523Z,180
2022-11-22T01:54:37.542Z,180
2022-11-22T01:54:57.579Z,180
2022-11-22T01:55:17.601Z,180
2022-11-22T01:55:37.627Z,180
2022-11-22T01:55:57.669Z,180
2022-11-22T01:56:17.683Z,157.5
2022-11-22T01:56:37.700Z,157.5
2022-11-22T01:56:57.734Z,157.5
2022-11-22T01:57:17.782Z,157.5
2022-11-22T01:57:37.794Z,157.5
2022-11-22T01:57:57.810Z,157.5
2022-11-22T01:58:17.833Z,157.5
2022-11-22T01:58:37.855Z,157.5
2022-11-22T01:58:57.879Z,180
2022-11-22T01:59:17.913Z,180
2022-11-22T01:59:37.925Z,180
2022-11-22T01:59:57.953Z,180
2022-11-22T02:00:17.979Z,180
2022-11-22T02:00:38.167Z,180
2022-11-22T02:00:58.130Z,180
2022-11-22T02:01:18.257Z,180
2022-11-22T02:01:38.172Z,180
2022-11-22T02:01:58.119Z,202.5
2022-11-22T02:02:18.141Z,202.5
2022-11-22T02:02:38.179Z,202.5
2022-11-22T02:02:58.217Z,202.5
2022-11-22T02:03:18.261Z,202.5
2022-11-22T02:03:38.304Z,180
2022-11-22T02:03:58.330Z,180
2022-11-22T02:04:18.352Z,180
2022-11-22T02:04:38.397Z,135
2022-11-22T02:04:58.411Z,135
2022-11-22T02:05:18.457Z,157.5
2022-11-22T02:05:38.460Z,180
2022-11-22T02:05:58.513Z,180
2022-11-22T02:06:18.548Z,180
2022-11-22T02:06:38.566Z,180
2022-11-22T02:06:58.600Z,180
2022-11-22T02:07:18.719Z,180
2022-11-22T02:07:38.749Z,225
2022-11-22T02:07:58.699Z,202.5
2022-11-22T02:08:18.728Z,202.5
2022-11-22T02:08:38.761Z,180
2022-11-22T02:08:58.816Z,180
2022-11-22T02:09:18.857Z,180
2022-11-22T02:09:38.881Z,180
2022-11-22T02:09:58.917Z,180
2022-11-22T02:10:19.022Z,180
2022-11-22T02:10:39.033Z,157.5
2022-11-22T02:10:59.065Z,135
2022-11-22T02:11:19.113Z,135
2022-11-22T02:11:39.190Z,157.5
2022-11-22T02:11:59.279Z,157.5
2022-11-22T02:12:19.294Z,157.5
2022-11-22T02:12:39.380Z,180
2022-11-22T02:12:59.391Z,180
2022-11-22T02:13:19.425Z,180
2022-11-22T02:13:39.507Z,180
2022-11-22T02:13:59.497Z,180
2022-11-22T02:14:19.500Z,157.5
2022-11-22T02:14:39.525Z,135
2022-11-22T02:14:59.579Z,135
2022-11-22T02:15:19.604Z,157.5
2022-11-22T02:15:39.663Z,157.5
2022-11-22T02:15:59.699Z,157.5
2022-11-22T02:16:19.763Z,135
2022-11-22T02:16:39.810Z,112.5
2022-11-22T02:16:59.852Z,112.5
2022-11-22T02:17:19.899Z,112.5
2022-11-22T02:17:39.961Z,135
2022-11-22T02:17:59.993Z,135
2022-11-22T02:18:20.035Z,135
2022-11-22T02:18:40.073Z,135
2022-11-22T02:19:00.087Z,157.5
2022-11-22T02:19:20.123Z,157.5
2022-11-22T02:19:40.190Z,180
2022-11-22T02:20:00.219Z,157.5
2022-11-22T02:20:20.270Z,112.5
2022-11-22T02:20:40.292Z,90
2022-11-22T02:21:00.331Z,112.5
2022-11-22T02:21:20.386Z,112.5
2022-11-22T02:21:40.434Z,112.5
2022-11-22T02:22:00.455Z,112.5
2022-11-22T02:22:20.490Z,112.5
2022-11-22T02:22:40.523Z,112.5
2022-11-22T02:23:00.537Z,180
2022-11-22T02:23:20.584Z,225
2022-11-22T02:23:40.658Z,225
2022-11-22T02:24:00.688Z,225
2022-11-22T02:24:20.707Z,225
2022-11-22T02:24:40.768Z,202.5
2022-11-22T02:25:00.795Z,135
2022-11-22T02:25:20.846Z,112.5
2022-11-22T02:25:40.875Z,112.5
2022-11-22T02:26:00.926Z,112.5
2022-11-22T02:26:20.931Z,135
2022-11-22T02:26:40.961Z,112.5
2022-11-22T02:27:01.024Z,112.5
2022-11-22T02:27:21.043Z,112.5
2022-11-22T02:27:41.093Z,135
2022-11-22T02:28:01.115Z,157.5
2022-11-22T02:28:21.148Z,157.5
2022-11-22T02:28:41.174Z,157.5
2022-11-22T02:29:01.202Z,135
2022-11-22T02:29:21.229Z,90
2022-11-22T02:29:41.267Z,67.5
2022-11-22T02:30:01.304Z,67.5
2022-11-22T02:30:21.336Z,90
2022-11-22T02:30:41.401Z,90
2022-11-22T02:31:01.421Z,112.5
2022-11-22T02:31:21.493Z,135
2022-11-22T02:31:41.600Z,157.5
2022-11-22T02:32:01.555Z,157.5
2022-11-22T02:32:21.585Z,180
2022-11-22T02:32:41.613Z,180
2022-11-22T02:33:01.643Z,157.5
2022-11-22T02:33:21.722Z,135
2022-11-22T02:33:41.750Z,112.5
2022-11-22T02:34:02.038Z,112.5
2022-11-22T02:34:21.825Z,112.5
2022-11-22T02:34:41.898Z,157.5
2022-11-22T02:35:01.897Z,180
2022-11-22T02:35:21.938Z,180
2022-11-22T02:35:41.967Z,180
2022-11-22T02:36:02.005Z,180
2022-11-22T02:36:22.027Z,180
2022-11-22T02:36:42.053Z,157.5
2022-11-22T02:37:02.075Z,135
2022-11-22T02:37:22.151Z,112.5
2022-11-22T02:37:42.212Z,90
2022-11-22T02:38:02.227Z,90
2022-11-22T02:38:22.254Z,67.5
2022-11-22T02:38:42.274Z,45
2022-11-22T02:39:02.309Z,45
2022-11-22T02:39:22.332Z,67.5
2022-11-22T02:39:42.388Z,67.5
2022-11-22T02:40:02.427Z,67.5
2022-11-22T02:40:22.455Z,67.5
2022-11-22T02:40:42.495Z,112.5
2022-11-22T02:41:02.540Z,225
2022-11-22T02:41:22.550Z,292.5
2022-11-22T02:41:42.590Z,202.5
2022-11-22T02:42:02.623Z,90
2022-11-22T02:42:22.654Z,180
2022-11-22T02:42:42.697Z,292.5
2022-11-22T02:43:02.748Z,337.5
2022-11-22T02:43:22.798Z,0
2022-11-22T02:43:42.864Z,0
2022-11-22T02:44:02.879Z,247.5
2022-11-22T02:44:22.927Z,112.5
2022-11-22T02:44:42.976Z,112.5
2022-11-22T02:45:03.051Z,135
2022-11-22T02:45:23.097Z,157.5
2022-11-22T02:45:43.136Z,180
2022-11-22T02:46:03.197Z,180
2022-11-22T02:46:23.203Z,180
2022-11-22T02:46:43.233Z,180
2022-11-22T02:47:03.248Z,180
2022-11-22T02:47:23.280Z,180
2022-11-22T02:47:43.318Z,157.5
2022-11-22T02:48:03.346Z,135
2022-11-22T02:48:23.386Z,135
2022-11-22T02:48:43.416Z,135
2022-11-22T02:49:03.445Z,180
2022-11-22T02:49:23.512Z,180
2022-11-22T02:49:43.541Z,180
2022-11-22T02:50:03.567Z,202.5
2022-11-22T02:50:23.603Z,202.5
2022-11-22T02:50:43.645Z,202.5
2022-11-22T02:51:03.689Z,225
2022-11-22T02:51:23.732Z,247.5
2022-11-22T02:51:43.777Z,270
2022-11-22T02:52:03.792Z,247.5
2022-11-22T02:52:23.833Z,225
2022-11-22T02:52:43.950Z,202.5
2022-11-22T02:53:03.892Z,202.5
2022-11-22T02:53:23.934Z,202.5
2022-11-22T02:53:43.963Z,202.5
2022-11-22T02:54:03.987Z,225
2022-11-22T02:54:24.022Z,202.5
2022-11-22T02:54:44.052Z,247.5
2022-11-22T02:55:04.122Z,270
2022-11-22T02:55:24.207Z,270
2022-11-22T02:55:44.193Z,247.5
2022-11-22T02:56:04.247Z,225
2022-11-22T02:56:24.278Z,202.5
2022-11-22T02:56:44.333Z,202.5
2022-11-22T02:57:04.379Z,202.5
2022-11-22T02:57:24.403Z,180
2022-11-22T02:57:44.450Z,180
2022-11-22T02:58:04.478Z,180
2022-11-22T02:58:24.501Z,180
2022-11-22T02:58:44.530Z,157.5
2022-11-22T02:59:04.530Z,157.5
2022-11-22T02:59:24.647Z,157.5
2022-11-22T02:59:44.607Z,135
2022-11-22T03:00:04.601Z,157.5
2022-11-22T03:00:24.628Z,157.5
2022-11-22T03:00:44.737Z,180
2022-11-22T03:01:04.784Z,180
2022-11-22T03:01:24.871Z,202.5
2022-11-22T03:01:44.763Z,180
2022-11-22T03:02:04.888Z,180
2022-11-22T03:02:24.815Z,180
2022-11-22T03:02:44.842Z,180
2022-11-22T03:03:04.889Z,180
2022-11-22T03:03:24.935Z,180
2022-11-22T03:03:44.949Z,180
2022-11-22T03:04:05.004Z,180
2022-11-22T03:04:25.399Z,180
2022-11-22T03:04:45.073Z,180
2022-11-22T03:05:05.089Z,157.5
2022-11-22T03:05:25.217Z,157.5
2022-11-22T03:05:45.168Z,202.5
2022-11-22T03:06:05.235Z,202.5
2022-11-22T03:06:25.250Z,202.5
2022-11-22T03:06:45.271Z,180
2022-11-22T03:07:05.350Z,180
2022-11-22T03:07:25.388Z,180
2022-11-22T03:07:45.478Z,180
2022-11-22T03:08:05.424Z,180
2022-11-22T03:08:25.441Z,180
2022-11-22T03:08:45.470Z,180
2022-11-22T03:09:05.530Z,225
2022-11-22T03:09:25.557Z,225
2022-11-22T03:09:45.608Z,225
2022-11-22T03:10:05.646Z,225
2022-11-22T03:10:25.685Z,180
2022-11-22T03:10:45.728Z,135
2022-11-22T03:11:05.743Z,157.5
2022-11-22T03:11:25.763Z,202.5
2022-11-22T03:11:45.800Z,202.5
2022-11-22T03:12:05.881Z,202.5
2022-11-22T03:12:25.880Z,202.5
2022-11-22T03:12:45.929Z,180
2022-11-22T03:13:05.951Z,180
2022-11-22T03:13:25.996Z,135
2022-11-22T03:13:46.060Z,112.5
2022-11-22T03:14:06.128Z,135
2022-11-22T03:14:26.161Z,135
2022-11-22T03:14:46.188Z,67.5
2022-11-22T03:15:06.214Z,112.5
2022-11-22T03:15:26.266Z,112.5
2022-11-22T03:15:46.284Z,180
2022-11-22T03:16:06.318Z,202.5
2022-11-22T03:16:26.354Z,202.5
2022-11-22T03:16:46.378Z,202.5
2022-11-22T03:17:06.452Z,202.5
2022-11-22T03:17:26.486Z,202.5
2022-11-22T03:17:46.503Z,180
2022-11-22T03:18:06.523Z,180
2022-11-22T03:18:26.550Z,180
2022-11-22T03:18:46.586Z,135
2022-11-22T03:19:06.603Z,90
2022-11-22T03:19:26.650Z,112.5
2022-11-22T03:19:46.760Z,135
2022-11-22T03:20:06.724Z,157.5
2022-11-22T03:20:26.753Z,180
2022-11-22T03:20:46.789Z,157.5
2022-11-22T03:21:06.799Z,180
2022-11-22T03:21:26.877Z,157.5
2022-11-22T03:21:46.917Z,157.5
2022-11-22T03:22:06.936Z,157.5
2022-11-22T03:22:26.991Z,180
2022-11-22T03:22:47.023Z,157.5
2022-11-22T03:23:07.099Z,135
2022-11-22T03:23:27.131Z,135
2022-11-22T03:23:47.179Z,157.5
2022-11-22T03:24:07.256Z,157.5
2022-11-22T03:24:27.323Z,135
2022-11-22T03:24:47.330Z,112.5
2022-11-22T03:25:07.361Z,135
2022-11-22T03:25:27.483Z,157.5
2022-11-22T03:25:47.423Z,157.5
2022-11-22T03:26:07.471Z,157.5
2022-11-22T03:26:27.538Z,135
2022-11-22T03:26:47.583Z,180
2022-11-22T03:27:07.620Z,157.5
2022-11-22T03:27:27.678Z,157.5
2022-11-22T03:27:47.712Z,180
2022-11-22T03:28:07.786Z,180
2022-11-22T03:28:27.778Z,180
2022-11-22T03:28:47.804Z,180
2022-11-22T03:29:07.841Z,180
2022-11-22T03:29:28.366Z,180
2022-11-22T03:29:47.919Z,180
2022-11-22T03:30:07.970Z,180
2022-11-22T03:30:28.010Z,180
2022-11-22T03:30:48.023Z,157.5
2022-11-22T03:31:08.051Z,157.5
2022-11-22T03:31:28.098Z,157.5
2022-11-22T03:31:48.135Z,180
2022-11-22T03:32:08.157Z,202.5
2022-11-22T03:32:28.190Z,180
2022-11-22T03:32:48.220Z,180
2022-11-22T03:33:08.277Z,135
2022-11-22T03:33:28.309Z,135
2022-11-22T03:33:48.348Z,157.5
2022-11-22T03:34:08.393Z,202.5
2022-11-22T03:34:28.412Z,202.5
2022-11-22T03:34:48.462Z,225
2022-11-22T03:35:08.460Z,225
2022-11-22T03:35:28.495Z,202.5
2022-11-22T03:35:48.525Z,202.5
2022-11-22T03:36:08.553Z,202.5
2022-11-22T03:36:28.615Z,157.5
2022-11-22T03:36:48.672Z,135
2022-11-22T03:37:08.743Z,112.5
2022-11-22T03:37:28.798Z,112.5
2022-11-22T03:37:48.854Z,135
2022-11-22T03:38:08.876Z,157.5
2022-11-22T03:38:28.918Z,202.5
2022-11-22T03:38:48.935Z,247.5
2022-11-22T03:39:08.966Z,270
2022-11-22T03:39:29.332Z,292.5
2022-11-22T03:39:49.035Z,337.5
2022-11-22T03:40:09.073Z,337.5
2022-11-22T03:40:29.094Z,292.5
2022-11-22T03:40:49.124Z,247.5
2022-11-22T03:41:09.159Z,225
2022-11-22T03:41:29.252Z,225
2022-11-22T03:41:49.217Z,247.5
2022-11-22T03:42:09.255Z,247.5
2022-11-22T03:42:29.282Z,270
2022-11-22T03:42:49.313Z,292.5
2022-11-22T03:43:09.326Z,270
2022-11-22T03:43:29.352Z,247.5
2022-11-22T03:43:49.387Z,202.5
2022-11-22T03:44:09.428Z,180
2022-11-22T03:44:29.464Z,202.5
2022-11-22T03:44:49.494Z,247.5
2022-11-22T03:45:09.526Z,247.5
2022-11-22T03:45:29.582Z,225
2022-11-22T03:45:49.606Z,247.5
2022-11-22T03:46:09.623Z,247.5
2022-11-22T03:46:29.648Z,292.5
2022-11-22T03:46:49.694Z,315
2022-11-22T03:47:09.759Z,292.5
2022-11-22T03:47:29.768Z,247.5
2022-11-22T03:47:49.797Z,292.5
2022-11-22T03:48:09.826Z,315
2022-11-22T03:48:29.848Z,292.5
2022-11-22T03:48:49.869Z,270
2022-11-22T03:49:09.932Z,247.5
2022-11-22T03:49:30.388Z,225
2022-11-22T03:49:50.009Z,202.5
2022-11-22T03:50:10.041Z,202.5
2022-11-22T03:50:30.087Z,202.5
2022-11-22T03:50:50.150Z,180
2022-11-22T03:51:10.205Z,180
2022-11-22T03:51:30.231Z,180
2022-11-22T03:51:50.268Z,180
2022-11-22T03:52:10.315Z,180
2022-11-22T03:52:30.358Z,180
2022-11-22T03:52:50.407Z,180
2022-11-22T03:53:10.441Z,157.5
2022-11-22T03:53:30.475Z,157.5
2022-11-22T03:53:50.491Z,157.5
2022-11-22T03:54:10.535Z,180
2022-11-22T03:54:30.562Z,247.5
2022-11-22T03:54:50.583Z,225
2022-11-22T03:55:10.614Z,180
2022-11-22T03:55:30.656Z,202.5
2022-11-22T03:55:50.695Z,225
2022-11-22T03:56:10.743Z,202.5
2022-11-22T03:56:30.780Z,225
2022-11-22T03:56:50.799Z,202.5
2022-11-22T03:57:10.861Z,157.5
2022-11-22T03:57:30.901Z,135
2022-11-22T03:57:50.923Z,112.5
2022-11-22T03:58:10.965Z,112.5
2022-11-22T03:58:31.001Z,112.5
2022-11-22T03:58:51.030Z,135
2022-11-22T03:59:11.048Z,180
2022-11-22T03:59:31.393Z,202.5
2022-11-22T03:59:51.116Z,225
2022-11-22T04:00:11.146Z,202.5
2022-11-22T04:00:31.174Z,202.5
2022-11-22T04:00:51.188Z,202.5
2022-11-22T04:01:16.392Z,202.5
2022-11-22T04:01:31.293Z,202.5
2022-11-22T04:01:51.327Z,180
2022-11-22T04:02:11.428Z,202.5
2022-11-22T04:02:31.355Z,202.5
2022-11-22T04:02:51.376Z,180
2022-11-22T04:03:11.416Z,180
2022-11-22T04:03:31.454Z,202.5
2022-11-22T04:03:51.491Z,202.5
2022-11-22T04:04:11.557Z,202.5
2022-11-22T04:04:31.568Z,225
2022-11-22T04:04:51.579Z,225
2022-11-22T04:05:11.624Z,202.5
2022-11-22T04:05:31.671Z,157.5
2022-11-22T04:05:51.738Z,112.5
2022-11-22T04:06:11.787Z,112.5
2022-11-22T04:06:31.815Z,135
2022-11-22T04:06:51.840Z,157.5
2022-11-22T04:07:11.957Z,180
2022-11-22T04:07:31.986Z,157.5
2022-11-22T04:07:51.977Z,180
2022-11-22T04:08:11.962Z,157.5
2022-11-22T04:08:32.024Z,180
2022-11-22T04:08:52.064Z,180
2022-11-22T04:09:12.190Z,180
2022-11-22T04:09:32.466Z,180
2022-11-22T04:09:52.183Z,180
2022-11-22T04:10:13.047Z,180
2022-11-22T04:10:32.278Z,180
2022-11-22T04:10:52.297Z,180
2022-11-22T04:11:12.330Z,157.5
2022-11-22T04:11:32.353Z,180
2022-11-22T04:11:52.374Z,202.5
2022-11-22T04:12:12.413Z,202.5
2022-11-22T04:12:32.443Z,202.5
2022-11-22T04:12:52.490Z,202.5
2022-11-22T04:13:12.511Z,202.5
2022-11-22T04:13:32.537Z,202.5
2022-11-22T04:13:52.590Z,202.5
2022-11-22T04:14:12.654Z,225
2022-11-22T04:14:32.702Z,225
2022-11-22T04:14:52.760Z,202.5
2022-11-22T04:15:12.833Z,180
2022-11-22T04:15:32.876Z,157.5
2022-11-22T04:15:52.892Z,180
2022-11-22T04:16:12.916Z,202.5
2022-11-22T04:16:32.954Z,202.5
2022-11-22T04:16:52.978Z,202.5
2022-11-22T04:17:13.034Z,202.5
2022-11-22T04:17:33.075Z,202.5
2022-11-22T04:17:53.123Z,202.5
2022-11-22T04:18:13.161Z,202.5
2022-11-22T04:18:33.195Z,202.5
2022-11-22T04:18:53.258Z,202.5
2022-11-22T04:19:13.292Z,202.5
2022-11-22T04:19:33.395Z,225
2022-11-22T04:19:53.349Z,202.5
2022-11-22T04:20:13.404Z,180
2022-11-22T04:20:33.439Z,180
2022-11-22T04:20:53.565Z,202.5
2022-11-22T04:21:13.499Z,202.5
2022-11-22T04:21:33.531Z,202.5
2022-11-22T04:21:53.586Z,225
2022-11-22T04:22:13.626Z,225
2022-11-22T04:22:33.648Z,180
2022-11-22T04:22:53.693Z,157.5
2022-11-22T04:23:13.748Z,157.5
2022-11-22T04:23:34.497Z,180
2022-11-22T04:23:53.845Z,202.5
2022-11-22T04:24:13.877Z,202.5
2022-11-22T04:24:33.915Z,202.5
2022-11-22T04:24:53.968Z,225
2022-11-22T04:25:13.980Z,225
2022-11-22T04:25:34.041Z,225
2022-11-22T04:25:54.050Z,202.5
2022-11-22T04:26:14.081Z,202.5
2022-11-22T04:26:34.180Z,202.5
2022-11-22T04:26:54.124Z,202.5
2022-11-22T04:27:14.169Z,202.5